Pagrindinis puslapis
METAR-TAF:

METAR-TAF

Oro uostai :

Manado, Indonezija

platuma: 01-32N, ilguma: 124-55E, Aukštis: 80 m

Dabartinis oras

Ataskaita buvo paskelbta 20 minutes, ne 20:00 UTC
Vėjas 1 kt nuo kintamojo kryptimis
Temperatūra 25°C
Drėgmė 79%
Slėgis 1012 hPa
Matomumas 10 km arba daugiau
Mažai debesys ne aukštis 2200 ft

METAR: WAMM 202000Z VRB01KT 9999 FEW022 25/21 Q1012 NOSIG

Laikas: 03:20 (20:20 UTC)

Prognozė

Ataskaita buvo paskelbta 3 valandos ir 20 minutes, ne 17:00 UTC
Prognozė galioja nuo 20 metu 18 UTC su 21 metu 24 UTC
Vėjas 3 kt iš Pietų/Pietryčių
Matomumas: 9000 m
Mažai debesys ne aukštis 2200 ft
Tapsmas
nuo 21 metu 05 UTC su 21 metu 06 UTC
Vėjas 10 kt iš Šiaurės/Šiaurės Vakarų

TAF: WAMM 201700Z 2018/2124 16003KT 9000 FEW022 BECMG 2105/2106 34010KT

Orai ataskaitas ir orų prognozės (METAR, TAF).

turimą stotys yra geltonos ir raudonos taškus žemėlapyje.

Perkelti pele per norėdami pamatyti stoties vardą.

Tada spustelėkite, norėdami matyti oro stebėjimo ir prognozės.

Norėdami pakeisti žemėlapį: spustelėkite ant žalios mygtukų su juodo kryžiaus žemyn,; žalią mygtuką su brūkšneliu, jei norite nutolinti; arba žalių rodyklių gretimoms žemėlapius.


METAR-TAF: